sensor_id;sensor_type;location;lat;lon;timestamp;temperature;humidity
16172;DHT22;8192;53.596;10.166;2023-06-14T00:01:54;13.40;83.80
16172;DHT22;8192;53.596;10.166;2023-06-14T00:04:21;13.40;83.80
16172;DHT22;8192;53.596;10.166;2023-06-14T00:06:52;13.30;84.10
16172;DHT22;8192;53.596;10.166;2023-06-14T00:09:22;13.40;84.10
16172;DHT22;8192;53.596;10.166;2023-06-14T00:11:49;13.40;83.40
16172;DHT22;8192;53.596;10.166;2023-06-14T00:14:16;13.40;83.30
16172;DHT22;8192;53.596;10.166;2023-06-14T00:16:43;13.30;83.80
16172;DHT22;8192;53.596;10.166;2023-06-14T00:19:10;13.30;83.80
16172;DHT22;8192;53.596;10.166;2023-06-14T00:21:38;13.40;83.70
16172;DHT22;8192;53.596;10.166;2023-06-14T00:24:07;13.40;83.40
16172;DHT22;8192;53.596;10.166;2023-06-14T00:26:34;13.30;83.70
16172;DHT22;8192;53.596;10.166;2023-06-14T00:29:01;13.30;84.00
16172;DHT22;8192;53.596;10.166;2023-06-14T00:31:29;13.30;84.00
16172;DHT22;8192;53.596;10.166;2023-06-14T00:33:56;13.30;84.00
16172;DHT22;8192;53.596;10.166;2023-06-14T00:36:23;13.40;83.50
16172;DHT22;8192;53.596;10.166;2023-06-14T00:38:50;13.40;83.50
16172;DHT22;8192;53.596;10.166;2023-06-14T00:41:18;13.40;83.30
16172;DHT22;8192;53.596;10.166;2023-06-14T00:43:45;13.50;83.00
16172;DHT22;8192;53.596;10.166;2023-06-14T00:46:13;13.40;83.30
16172;DHT22;8192;53.596;10.166;2023-06-14T00:48:40;13.40;83.60
16172;DHT22;8192;53.596;10.166;2023-06-14T00:51:07;13.40;83.50
16172;DHT22;8192;53.596;10.166;2023-06-14T00:53:34;13.30;83.70
16172;DHT22;8192;53.596;10.166;2023-06-14T00:56:02;13.10;84.30
16172;DHT22;8192;53.596;10.166;2023-06-14T00:58:30;13.20;84.70
16172;DHT22;8192;53.596;10.166;2023-06-14T01:01:01;13.00;84.50
16172;DHT22;8192;53.596;10.166;2023-06-14T01:03:28;13.00;85.60
16172;DHT22;8192;53.596;10.166;2023-06-14T01:06:03;13.10;85.40
16172;DHT22;8192;53.596;10.166;2023-06-14T01:08:44;13.10;85.40
16172;DHT22;8192;53.596;10.166;2023-06-14T01:11:18;13.00;85.40
16172;DHT22;8192;53.596;10.166;2023-06-14T01:13:48;13.10;85.50
16172;DHT22;8192;53.596;10.166;2023-06-14T01:16:18;13.10;85.20
16172;DHT22;8192;53.596;10.166;2023-06-14T01:18:46;13.00;85.60
16172;DHT22;8192;53.596;10.166;2023-06-14T01:21:21;12.70;86.10
16172;DHT22;8192;53.596;10.166;2023-06-14T01:23:51;12.60;87.10
16172;DHT22;8192;53.596;10.166;2023-06-14T01:26:19;12.60;87.60
16172;DHT22;8192;53.596;10.166;2023-06-14T01:28:47;12.50;88.00
16172;DHT22;8192;53.596;10.166;2023-06-14T01:31:19;12.50;88.00
16172;DHT22;8192;53.596;10.166;2023-06-14T01:33:48;12.50;88.20
16172;DHT22;8192;53.596;10.166;2023-06-14T01:36:17;12.50;88.20
16172;DHT22;8192;53.596;10.166;2023-06-14T01:38:46;12.50;87.90
16172;DHT22;8192;53.596;10.166;2023-06-14T01:41:15;12.50;88.60
16172;DHT22;8192;53.596;10.166;2023-06-14T01:43:43;12.40;88.80
16172;DHT22;8192;53.596;10.166;2023-06-14T01:46:11;12.50;88.60
16172;DHT22;8192;53.596;10.166;2023-06-14T01:48:38;12.40;88.90
16172;DHT22;8192;53.596;10.166;2023-06-14T01:51:05;12.30;89.20
16172;DHT22;8192;53.596;10.166;2023-06-14T01:53:32;12.20;89.60
16172;DHT22;8192;53.596;10.166;2023-06-14T01:55:59;12.10;89.70
16172;DHT22;8192;53.596;10.166;2023-06-14T01:58:28;12.00;90.00
16172;DHT22;8192;53.596;10.166;2023-06-14T02:00:55;11.90;90.40
16172;DHT22;8192;53.596;10.166;2023-06-14T02:03:23;11.80;90.60
16172;DHT22;8192;53.596;10.166;2023-06-14T02:05:50;11.90;90.90
16172;DHT22;8192;53.596;10.166;2023-06-14T02:08:17;11.90;90.80
16172;DHT22;8192;53.596;10.166;2023-06-14T02:10:44;11.80;90.60
16172;DHT22;8192;53.596;10.166;2023-06-14T02:13:12;11.80;90.70
16172;DHT22;8192;53.596;10.166;2023-06-14T02:15:41;11.80;90.90
16172;DHT22;8192;53.596;10.166;2023-06-14T02:18:09;11.80;91.00
16172;DHT22;8192;53.596;10.166;2023-06-14T02:20:37;11.80;91.20
16172;DHT22;8192;53.596;10.166;2023-06-14T02:23:04;11.90;91.20
16172;DHT22;8192;53.596;10.166;2023-06-14T02:25:33;11.80;91.10
16172;DHT22;8192;53.596;10.166;2023-06-14T02:28:04;11.70;91.30
16172;DHT22;8192;53.596;10.166;2023-06-14T02:30:33;11.70;91.30
16172;DHT22;8192;53.596;10.166;2023-06-14T02:33:01;11.80;91.70
16172;DHT22;8192;53.596;10.166;2023-06-14T02:35:30;11.80;91.60
16172;DHT22;8192;53.596;10.166;2023-06-14T02:37:57;11.70;91.60
16172;DHT22;8192;53.596;10.166;2023-06-14T02:40:25;11.70;91.70
16172;DHT22;8192;53.596;10.166;2023-06-14T02:42:53;11.70;91.60
16172;DHT22;8192;53.596;10.166;2023-06-14T02:45:20;11.70;91.90
16172;DHT22;8192;53.596;10.166;2023-06-14T02:47:48;12.00;91.60
16172;DHT22;8192;53.596;10.166;2023-06-14T02:50:17;12.20;91.60
16172;DHT22;8192;53.596;10.166;2023-06-14T02:52:44;12.20;91.00
16172;DHT22;8192;53.596;10.166;2023-06-14T02:55:11;12.30;90.70
16172;DHT22;8192;53.596;10.166;2023-06-14T02:57:38;12.20;90.80
16172;DHT22;8192;53.596;10.166;2023-06-14T03:00:06;12.20;91.00
16172;DHT22;8192;53.596;10.166;2023-06-14T03:02:35;12.20;90.90
16172;DHT22;8192;53.596;10.166;2023-06-14T03:05:02;12.10;91.10
16172;DHT22;8192;53.596;10.166;2023-06-14T03:07:33;12.20;91.20
16172;DHT22;8192;53.596;10.166;2023-06-14T03:10:00;12.20;90.90
16172;DHT22;8192;53.596;10.166;2023-06-14T03:12:29;12.20;91.20
16172;DHT22;8192;53.596;10.166;2023-06-14T03:14:56;12.30;91.20
16172;DHT22;8192;53.596;10.166;2023-06-14T03:17:27;12.40;91.00
16172;DHT22;8192;53.596;10.166;2023-06-14T03:19:55;12.50;90.80
16172;DHT22;8192;53.596;10.166;2023-06-14T03:22:22;12.50;90.70
16172;DHT22;8192;53.596;10.166;2023-06-14T03:24:52;12.50;90.80
16172;DHT22;8192;53.596;10.166;2023-06-14T03:27:19;12.50;90.90
16172;DHT22;8192;53.596;10.166;2023-06-14T03:29:46;12.50;90.70
16172;DHT22;8192;53.596;10.166;2023-06-14T03:32:13;12.60;90.80
16172;DHT22;8192;53.596;10.166;2023-06-14T03:34:40;12.70;90.70
16172;DHT22;8192;53.596;10.166;2023-06-14T03:37:08;12.70;90.60
16172;DHT22;8192;53.596;10.166;2023-06-14T03:39:35;12.70;90.70
16172;DHT22;8192;53.596;10.166;2023-06-14T03:42:04;12.80;90.70
16172;DHT22;8192;53.596;10.166;2023-06-14T03:44:32;12.80;90.50
16172;DHT22;8192;53.596;10.166;2023-06-14T03:46:59;12.80;90.50
16172;DHT22;8192;53.596;10.166;2023-06-14T03:49:25;12.90;90.50
16172;DHT22;8192;53.596;10.166;2023-06-14T03:51:52;13.10;90.10
16172;DHT22;8192;53.596;10.166;2023-06-14T03:54:19;13.30;89.70
16172;DHT22;8192;53.596;10.166;2023-06-14T03:56:47;13.30;89.10
16172;DHT22;8192;53.596;10.166;2023-06-14T03:59:15;13.40;89.30
16172;DHT22;8192;53.596;10.166;2023-06-14T04:01:42;13.60;88.70
16172;DHT22;8192;53.596;10.166;2023-06-14T04:04:10;14.00;87.60
16172;DHT22;8192;53.596;10.166;2023-06-14T04:06:37;14.60;84.60
16172;DHT22;8192;53.596;10.166;2023-06-14T04:09:06;14.90;83.10
16172;DHT22;8192;53.596;10.166;2023-06-14T04:11:33;15.20;81.50
16172;DHT22;8192;53.596;10.166;2023-06-14T04:14:02;15.80;79.40
16172;DHT22;8192;53.596;10.166;2023-06-14T04:16:30;16.60;76.20
16172;DHT22;8192;53.596;10.166;2023-06-14T04:18:58;17.20;72.90
16172;DHT22;8192;53.596;10.166;2023-06-14T04:21:25;17.70;71.10
16172;DHT22;8192;53.596;10.166;2023-06-14T04:23:53;18.00;68.90
16172;DHT22;8192;53.596;10.166;2023-06-14T04:26:21;18.30;67.40
16172;DHT22;8192;53.596;10.166;2023-06-14T04:28:49;18.70;66.20
16172;DHT22;8192;53.596;10.166;2023-06-14T04:31:17;19.10;65.10
16172;DHT22;8192;53.596;10.166;2023-06-14T04:33:46;19.30;63.40
16172;DHT22;8192;53.596;10.166;2023-06-14T04:36:13;19.50;62.20
16172;DHT22;8192;53.596;10.166;2023-06-14T04:38:43;19.50;62.50
16172;DHT22;8192;53.596;10.166;2023-06-14T04:41:10;19.30;62.50
16172;DHT22;8192;53.596;10.166;2023-06-14T04:43:37;19.30;63.00
16172;DHT22;8192;53.596;10.166;2023-06-14T04:46:05;19.20;63.30
16172;DHT22;8192;53.596;10.166;2023-06-14T04:48:35;19.80;64.20
16172;DHT22;8192;53.596;10.166;2023-06-14T04:51:05;20.60;59.60
16172;DHT22;8192;53.596;10.166;2023-06-14T04:53:32;20.60;59.70
16172;DHT22;8192;53.596;10.166;2023-06-14T04:55:59;21.00;57.70
16172;DHT22;8192;53.596;10.166;2023-06-14T04:58:27;21.10;57.20
16172;DHT22;8192;53.596;10.166;2023-06-14T05:00:54;21.00;57.30
16172;DHT22;8192;53.596;10.166;2023-06-14T05:03:21;20.80;58.20
16172;DHT22;8192;53.596;10.166;2023-06-14T05:05:49;21.10;58.80
16172;DHT22;8192;53.596;10.166;2023-06-14T05:08:20;21.70;55.70
16172;DHT22;8192;53.596;10.166;2023-06-14T05:10:49;22.20;54.70
16172;DHT22;8192;53.596;10.166;2023-06-14T05:13:16;22.10;54.20
16172;DHT22;8192;53.596;10.166;2023-06-14T05:15:43;22.10;54.10
16172;DHT22;8192;53.596;10.166;2023-06-14T05:18:16;22.10;53.70
16172;DHT22;8192;53.596;10.166;2023-06-14T05:20:44;22.20;53.40
16172;DHT22;8192;53.596;10.166;2023-06-14T05:23:11;22.10;53.30
16172;DHT22;8192;53.596;10.166;2023-06-14T05:25:42;22.30;53.00
16172;DHT22;8192;53.596;10.166;2023-06-14T05:28:10;22.80;52.30
16172;DHT22;8192;53.596;10.166;2023-06-14T05:30:38;23.40;50.90
16172;DHT22;8192;53.596;10.166;2023-06-14T05:33:06;23.30;49.90
16172;DHT22;8192;53.596;10.166;2023-06-14T05:35:33;23.20;50.80
16172;DHT22;8192;53.596;10.166;2023-06-14T05:38:00;23.40;49.60
16172;DHT22;8192;53.596;10.166;2023-06-14T05:40:27;22.90;50.60
16172;DHT22;8192;53.596;10.166;2023-06-14T05:42:56;22.80;51.60
16172;DHT22;8192;53.596;10.166;2023-06-14T05:45:25;23.10;50.20
16172;DHT22;8192;53.596;10.166;2023-06-14T05:47:52;23.20;50.20
16172;DHT22;8192;53.596;10.166;2023-06-14T05:50:20;23.20;50.60
16172;DHT22;8192;53.596;10.166;2023-06-14T05:52:47;23.20;50.60
16172;DHT22;8192;53.596;10.166;2023-06-14T05:55:16;23.30;50.80
16172;DHT22;8192;53.596;10.166;2023-06-14T05:57:44;23.90;47.80
16172;DHT22;8192;53.596;10.166;2023-06-14T06:00:14;24.10;48.20
16172;DHT22;8192;53.596;10.166;2023-06-14T06:02:41;24.50;46.50
16172;DHT22;8192;53.596;10.166;2023-06-14T06:05:09;23.80;47.50
16172;DHT22;8192;53.596;10.166;2023-06-14T06:07:36;23.70;49.20
16172;DHT22;8192;53.596;10.166;2023-06-14T06:10:04;24.30;49.70
16172;DHT22;8192;53.596;10.166;2023-06-14T06:12:31;24.30;45.70
16172;DHT22;8192;53.596;10.166;2023-06-14T06:14:59;24.00;46.90
16172;DHT22;8192;53.596;10.166;2023-06-14T06:17:27;23.90;46.80
16172;DHT22;8192;53.596;10.166;2023-06-14T06:19:56;24.10;49.60
16172;DHT22;8192;53.596;10.166;2023-06-14T06:22:23;24.60;46.20
16172;DHT22;8192;53.596;10.166;2023-06-14T06:24:50;25.00;44.60
16172;DHT22;8192;53.596;10.166;2023-06-14T06:27:17;25.30;42.70
16172;DHT22;8192;53.596;10.166;2023-06-14T06:29:47;25.20;43.70
16172;DHT22;8192;53.596;10.166;2023-06-14T06:32:15;25.20;42.80
16172;DHT22;8192;53.596;10.166;2023-06-14T06:34:44;25.20;43.40
16172;DHT22;8192;53.596;10.166;2023-06-14T06:37:11;25.50;43.00
16172;DHT22;8192;53.596;10.166;2023-06-14T06:39:40;25.60;42.40
16172;DHT22;8192;53.596;10.166;2023-06-14T06:42:10;25.30;42.30
16172;DHT22;8192;53.596;10.166;2023-06-14T06:44:37;25.00;43.10
16172;DHT22;8192;53.596;10.166;2023-06-14T06:47:05;24.80;44.70
16172;DHT22;8192;53.596;10.166;2023-06-14T06:49:32;24.80;41.20
16172;DHT22;8192;53.596;10.166;2023-06-14T06:52:04;24.80;41.90
16172;DHT22;8192;53.596;10.166;2023-06-14T06:54:32;25.10;41.90
16172;DHT22;8192;53.596;10.166;2023-06-14T06:57:00;25.00;42.30
16172;DHT22;8192;53.596;10.166;2023-06-14T06:59:28;25.40;45.40
16172;DHT22;8192;53.596;10.166;2023-06-14T07:01:55;25.70;42.40
16172;DHT22;8192;53.596;10.166;2023-06-14T07:04:22;26.10;42.10
16172;DHT22;8192;53.596;10.166;2023-06-14T07:06:50;26.20;40.50
16172;DHT22;8192;53.596;10.166;2023-06-14T07:09:19;25.70;41.90
16172;DHT22;8192;53.596;10.166;2023-06-14T07:11:47;26.40;42.50
16172;DHT22;8192;53.596;10.166;2023-06-14T07:14:14;27.10;37.90
16172;DHT22;8192;53.596;10.166;2023-06-14T07:16:43;26.80;39.20
16172;DHT22;8192;53.596;10.166;2023-06-14T07:19:12;26.90;39.00
16172;DHT22;8192;53.596;10.166;2023-06-14T07:21:39;27.30;37.60
16172;DHT22;8192;53.596;10.166;2023-06-14T07:24:06;26.90;39.10
16172;DHT22;8192;53.596;10.166;2023-06-14T07:26:35;27.10;37.50
16172;DHT22;8192;53.596;10.166;2023-06-14T07:29:03;26.10;38.60
16172;DHT22;8192;53.596;10.166;2023-06-14T07:31:30;26.10;39.60
16172;DHT22;8192;53.596;10.166;2023-06-14T07:33:58;26.00;38.70
16172;DHT22;8192;53.596;10.166;2023-06-14T07:36:25;25.90;38.90
16172;DHT22;8192;53.596;10.166;2023-06-14T07:38:52;26.10;39.20
16172;DHT22;8192;53.596;10.166;2023-06-14T07:41:19;26.10;38.30
16172;DHT22;8192;53.596;10.166;2023-06-14T07:43:48;26.30;38.20
16172;DHT22;8192;53.596;10.166;2023-06-14T07:46:15;26.30;38.50
16172;DHT22;8192;53.596;10.166;2023-06-14T07:48:42;26.00;37.90
16172;DHT22;8192;53.596;10.166;2023-06-14T07:51:09;25.70;39.20
16172;DHT22;8192;53.596;10.166;2023-06-14T07:53:36;26.00;38.90
16172;DHT22;8192;53.596;10.166;2023-06-14T07:56:04;26.70;37.60
16172;DHT22;8192;53.596;10.166;2023-06-14T07:58:30;26.80;36.60
16172;DHT22;8192;53.596;10.166;2023-06-14T08:00:59;26.80;37.60
16172;DHT22;8192;53.596;10.166;2023-06-14T08:03:29;27.20;36.60
16172;DHT22;8192;53.596;10.166;2023-06-14T08:05:57;27.50;37.30
16172;DHT22;8192;53.596;10.166;2023-06-14T08:08:24;27.60;35.80
16172;DHT22;8192;53.596;10.166;2023-06-14T08:10:51;27.30;35.70
16172;DHT22;8192;53.596;10.166;2023-06-14T08:13:18;27.20;36.40
16172;DHT22;8192;53.596;10.166;2023-06-14T08:15:45;27.80;36.90
16172;DHT22;8192;53.596;10.166;2023-06-14T08:18:14;27.60;35.40
16172;DHT22;8192;53.596;10.166;2023-06-14T08:20:41;28.10;36.00
16172;DHT22;8192;53.596;10.166;2023-06-14T08:23:08;27.80;35.20
16172;DHT22;8192;53.596;10.166;2023-06-14T08:25:35;27.40;35.70
16172;DHT22;8192;53.596;10.166;2023-06-14T08:28:02;27.20;36.80
16172;DHT22;8192;53.596;10.166;2023-06-14T08:30:29;26.80;37.00
16172;DHT22;8192;53.596;10.166;2023-06-14T08:32:56;27.00;36.60
16172;DHT22;8192;53.596;10.166;2023-06-14T08:35:26;27.30;38.30
16172;DHT22;8192;53.596;10.166;2023-06-14T08:37:53;27.50;36.20
16172;DHT22;8192;53.596;10.166;2023-06-14T08:40:21;27.60;36.10
16172;DHT22;8192;53.596;10.166;2023-06-14T08:42:51;27.10;35.70
16172;DHT22;8192;53.596;10.166;2023-06-14T08:45:19;26.90;37.40
16172;DHT22;8192;53.596;10.166;2023-06-14T08:47:47;27.20;35.90
16172;DHT22;8192;53.596;10.166;2023-06-14T08:50:20;26.90;37.90
16172;DHT22;8192;53.596;10.166;2023-06-14T08:52:57;26.70;37.30
16172;DHT22;8192;53.596;10.166;2023-06-14T08:55:29;26.50;37.00
16172;DHT22;8192;53.596;10.166;2023-06-14T08:57:58;26.30;38.00
16172;DHT22;8192;53.596;10.166;2023-06-14T09:00:25;26.00;37.40
16172;DHT22;8192;53.596;10.166;2023-06-14T09:02:53;25.30;39.40
16172;DHT22;8192;53.596;10.166;2023-06-14T09:05:24;25.00;41.00
16172;DHT22;8192;53.596;10.166;2023-06-14T09:07:52;24.70;41.00
16172;DHT22;8192;53.596;10.166;2023-06-14T09:10:22;24.30;42.10
16172;DHT22;8192;53.596;10.166;2023-06-14T09:12:51;23.60;44.30
16172;DHT22;8192;53.596;10.166;2023-06-14T09:15:18;23.10;44.10
16172;DHT22;8192;53.596;10.166;2023-06-14T09:17:46;22.90;44.30
16172;DHT22;8192;53.596;10.166;2023-06-14T09:20:13;22.60;46.70
16172;DHT22;8192;53.596;10.166;2023-06-14T09:22:43;22.60;47.80
16172;DHT22;8192;53.596;10.166;2023-06-14T09:25:11;22.90;47.00
16172;DHT22;8192;53.596;10.166;2023-06-14T09:27:45;23.00;46.50
16172;DHT22;8192;53.596;10.166;2023-06-14T09:30:14;22.90;46.80
16172;DHT22;8192;53.596;10.166;2023-06-14T09:32:41;22.90;46.10
16172;DHT22;8192;53.596;10.166;2023-06-14T09:35:09;22.70;46.20
16172;DHT22;8192;53.596;10.166;2023-06-14T09:37:36;22.70;46.60
16172;DHT22;8192;53.596;10.166;2023-06-14T09:40:05;22.60;48.80
16172;DHT22;8192;53.596;10.166;2023-06-14T09:42:33;22.90;47.10
16172;DHT22;8192;53.596;10.166;2023-06-14T09:45:03;22.90;47.80
16172;DHT22;8192;53.596;10.166;2023-06-14T09:47:30;23.10;46.40
16172;DHT22;8192;53.596;10.166;2023-06-14T09:50:00;23.20;45.90
16172;DHT22;8192;53.596;10.166;2023-06-14T09:52:27;23.40;45.80
16172;DHT22;8192;53.596;10.166;2023-06-14T09:54:56;23.60;46.10
16172;DHT22;8192;53.596;10.166;2023-06-14T09:57:24;23.50;43.40
16172;DHT22;8192;53.596;10.166;2023-06-14T09:59:54;23.30;45.60
16172;DHT22;8192;53.596;10.166;2023-06-14T10:02:32;23.40;45.90
16172;DHT22;8192;53.596;10.166;2023-06-14T10:05:05;23.50;43.80
16172;DHT22;8192;53.596;10.166;2023-06-14T10:07:39;23.40;43.70
16172;DHT22;8192;53.596;10.166;2023-06-14T10:10:07;23.40;44.40
16172;DHT22;8192;53.596;10.166;2023-06-14T10:12:35;23.10;45.00
16172;DHT22;8192;53.596;10.166;2023-06-14T10:15:04;23.20;46.00
16172;DHT22;8192;53.596;10.166;2023-06-14T10:17:40;23.40;46.20
16172;DHT22;8192;53.596;10.166;2023-06-14T10:20:21;23.70;44.90
16172;DHT22;8192;53.596;10.166;2023-06-14T10:22:59;23.50;43.90
16172;DHT22;8192;53.596;10.166;2023-06-14T10:25:29;23.10;45.60
16172;DHT22;8192;53.596;10.166;2023-06-14T10:28:14;23.50;45.30
16172;DHT22;8192;53.596;10.166;2023-06-14T10:31:03;24.00;44.40
16172;DHT22;8192;53.596;10.166;2023-06-14T10:33:32;24.30;43.30
16172;DHT22;8192;53.596;10.166;2023-06-14T10:36:11;24.20;42.20
16172;DHT22;8192;53.596;10.166;2023-06-14T10:38:57;24.00;42.80
16172;DHT22;8192;53.596;10.166;2023-06-14T10:41:26;23.50;44.00
16172;DHT22;8192;53.596;10.166;2023-06-14T10:44:10;23.30;46.50
16172;DHT22;8192;53.596;10.166;2023-06-14T10:46:38;23.50;45.10
16172;DHT22;8192;53.596;10.166;2023-06-14T10:49:06;23.70;45.10
16172;DHT22;8192;53.596;10.166;2023-06-14T10:51:39;24.50;45.60
16172;DHT22;8192;53.596;10.166;2023-06-14T10:54:12;24.70;41.90
16172;DHT22;8192;53.596;10.166;2023-06-14T10:56:45;24.60;41.50
16172;DHT22;8192;53.596;10.166;2023-06-14T10:59:13;24.40;42.90
16172;DHT22;8192;53.596;10.166;2023-06-14T11:01:47;24.20;42.20
16172;DHT22;8192;53.596;10.166;2023-06-14T11:04:20;24.10;42.80
16172;DHT22;8192;53.596;10.166;2023-06-14T11:06:49;24.00;42.00
16172;DHT22;8192;53.596;10.166;2023-06-14T11:09:51;24.00;42.80
16172;DHT22;8192;53.596;10.166;2023-06-14T11:12:21;24.50;42.40
16172;DHT22;8192;53.596;10.166;2023-06-14T11:14:50;24.60;42.30
16172;DHT22;8192;53.596;10.166;2023-06-14T11:17:17;24.70;41.00
16172;DHT22;8192;53.596;10.166;2023-06-14T11:19:45;24.50;42.40
16172;DHT22;8192;53.596;10.166;2023-06-14T11:22:12;24.40;41.50
16172;DHT22;8192;53.596;10.166;2023-06-14T11:24:42;24.50;43.30
16172;DHT22;8192;53.596;10.166;2023-06-14T11:27:10;24.50;41.90
16172;DHT22;8192;53.596;10.166;2023-06-14T11:29:38;24.60;42.20
16172;DHT22;8192;53.596;10.166;2023-06-14T11:32:07;24.60;42.70
16172;DHT22;8192;53.596;10.166;2023-06-14T11:34:37;24.60;41.80
16172;DHT22;8192;53.596;10.166;2023-06-14T11:37:06;24.30;42.30
16172;DHT22;8192;53.596;10.166;2023-06-14T11:39:33;24.20;42.90
16172;DHT22;8192;53.596;10.166;2023-06-14T11:42:01;24.40;42.70
16172;DHT22;8192;53.596;10.166;2023-06-14T11:44:29;24.70;42.90
16172;DHT22;8192;53.596;10.166;2023-06-14T11:46:56;25.00;40.50
16172;DHT22;8192;53.596;10.166;2023-06-14T11:49:25;25.30;41.10
16172;DHT22;8192;53.596;10.166;2023-06-14T11:51:53;25.30;40.00
16172;DHT22;8192;53.596;10.166;2023-06-14T11:54:23;25.20;41.30
16172;DHT22;8192;53.596;10.166;2023-06-14T11:56:50;25.00;40.80
16172;DHT22;8192;53.596;10.166;2023-06-14T11:59:17;24.70;41.10
16172;DHT22;8192;53.596;10.166;2023-06-14T12:01:44;24.40;41.40
16172;DHT22;8192;53.596;10.166;2023-06-14T12:04:12;24.30;42.30
16172;DHT22;8192;53.596;10.166;2023-06-14T12:06:39;24.10;43.10
16172;DHT22;8192;53.596;10.166;2023-06-14T12:09:07;24.50;43.20
16172;DHT22;8192;53.596;10.166;2023-06-14T12:11:39;24.90;41.10
16172;DHT22;8192;53.596;10.166;2023-06-14T12:14:08;24.70;41.10
16172;DHT22;8192;53.596;10.166;2023-06-14T12:16:38;24.60;41.00
16172;DHT22;8192;53.596;10.166;2023-06-14T12:19:12;24.60;41.20
16172;DHT22;8192;53.596;10.166;2023-06-14T12:21:39;24.70;42.50
16172;DHT22;8192;53.596;10.166;2023-06-14T12:24:11;24.90;39.30
16172;DHT22;8192;53.596;10.166;2023-06-14T12:26:40;25.00;39.10
16172;DHT22;8192;53.596;10.166;2023-06-14T12:29:07;25.20;39.20
16172;DHT22;8192;53.596;10.166;2023-06-14T12:31:35;25.00;39.90
16172;DHT22;8192;53.596;10.166;2023-06-14T12:34:02;24.60;39.90
16172;DHT22;8192;53.596;10.166;2023-06-14T12:36:30;24.80;41.20
16172;DHT22;8192;53.596;10.166;2023-06-14T12:38:57;24.90;40.60
16172;DHT22;8192;53.596;10.166;2023-06-14T12:41:25;24.60;40.50
16172;DHT22;8192;53.596;10.166;2023-06-14T12:43:53;24.60;40.90
16172;DHT22;8192;53.596;10.166;2023-06-14T12:46:23;24.40;39.70
16172;DHT22;8192;53.596;10.166;2023-06-14T12:48:49;24.50;41.30
16172;DHT22;8192;53.596;10.166;2023-06-14T12:51:16;25.10;40.40
16172;DHT22;8192;53.596;10.166;2023-06-14T12:53:43;25.20;39.70
16172;DHT22;8192;53.596;10.166;2023-06-14T12:56:10;25.00;40.00
16172;DHT22;8192;53.596;10.166;2023-06-14T12:58:37;24.30;40.90
16172;DHT22;8192;53.596;10.166;2023-06-14T13:01:06;24.10;41.40
16172;DHT22;8192;53.596;10.166;2023-06-14T13:03:33;23.80;42.40
16172;DHT22;8192;53.596;10.166;2023-06-14T13:06:00;23.80;43.00
16172;DHT22;8192;53.596;10.166;2023-06-14T13:08:29;24.30;41.60
16172;DHT22;8192;53.596;10.166;2023-06-14T13:10:56;24.70;41.30
16172;DHT22;8192;53.596;10.166;2023-06-14T13:13:23;25.20;39.80
16172;DHT22;8192;53.596;10.166;2023-06-14T13:15:50;25.70;38.20
16172;DHT22;8192;53.596;10.166;2023-06-14T13:18:19;26.00;38.50
16172;DHT22;8192;53.596;10.166;2023-06-14T13:20:46;25.60;37.60
16172;DHT22;8192;53.596;10.166;2023-06-14T13:23:15;25.40;37.60
16172;DHT22;8192;53.596;10.166;2023-06-14T13:25:42;24.80;40.10
16172;DHT22;8192;53.596;10.166;2023-06-14T13:28:09;24.40;40.70
16172;DHT22;8192;53.596;10.166;2023-06-14T13:30:37;24.20;40.70
16172;DHT22;8192;53.596;10.166;2023-06-14T13:33:04;24.20;39.30
16172;DHT22;8192;53.596;10.166;2023-06-14T13:35:32;24.10;41.20
16172;DHT22;8192;53.596;10.166;2023-06-14T13:37:59;24.40;40.30
16172;DHT22;8192;53.596;10.166;2023-06-14T13:40:26;24.80;39.90
16172;DHT22;8192;53.596;10.166;2023-06-14T13:42:53;25.00;39.10
16172;DHT22;8192;53.596;10.166;2023-06-14T13:45:20;25.30;41.00
16172;DHT22;8192;53.596;10.166;2023-06-14T13:47:48;25.60;38.80
16172;DHT22;8192;53.596;10.166;2023-06-14T13:50:15;25.70;37.70
16172;DHT22;8192;53.596;10.166;2023-06-14T13:52:44;26.00;36.60
16172;DHT22;8192;53.596;10.166;2023-06-14T13:55:13;26.20;36.70
16172;DHT22;8192;53.596;10.166;2023-06-14T13:57:39;25.90;36.90
16172;DHT22;8192;53.596;10.166;2023-06-14T14:00:07;26.10;37.40
16172;DHT22;8192;53.596;10.166;2023-06-14T14:02:35;26.70;36.80
16172;DHT22;8192;53.596;10.166;2023-06-14T14:05:02;26.80;35.10
16172;DHT22;8192;53.596;10.166;2023-06-14T14:07:29;26.10;35.50
16172;DHT22;8192;53.596;10.166;2023-06-14T14:09:57;25.10;37.90
16172;DHT22;8192;53.596;10.166;2023-06-14T14:12:24;25.00;38.30
16172;DHT22;8192;53.596;10.166;2023-06-14T14:14:52;25.40;37.80
16172;DHT22;8192;53.596;10.166;2023-06-14T14:17:19;26.10;38.00
16172;DHT22;8192;53.596;10.166;2023-06-14T14:19:46;26.70;34.70
16172;DHT22;8192;53.596;10.166;2023-06-14T14:22:12;27.00;33.40
16172;DHT22;8192;53.596;10.166;2023-06-14T14:24:39;26.90;33.60
16172;DHT22;8192;53.596;10.166;2023-06-14T14:27:08;27.20;34.00
16172;DHT22;8192;53.596;10.166;2023-06-14T14:29:35;27.40;33.60
16172;DHT22;8192;53.596;10.166;2023-06-14T14:32:03;27.60;33.90
16172;DHT22;8192;53.596;10.166;2023-06-14T14:34:30;28.10;33.00
16172;DHT22;8192;53.596;10.166;2023-06-14T14:36:58;28.20;30.50
16172;DHT22;8192;53.596;10.166;2023-06-14T14:39:25;27.70;32.70
16172;DHT22;8192;53.596;10.166;2023-06-14T14:41:52;27.40;32.50
16172;DHT22;8192;53.596;10.166;2023-06-14T14:44:20;27.70;32.90
16172;DHT22;8192;53.596;10.166;2023-06-14T14:46:47;27.80;31.00
16172;DHT22;8192;53.596;10.166;2023-06-14T14:49:14;27.40;34.00
16172;DHT22;8192;53.596;10.166;2023-06-14T14:51:41;27.30;32.60
16172;DHT22;8192;53.596;10.166;2023-06-14T14:54:08;27.40;36.20
16172;DHT22;8192;53.596;10.166;2023-06-14T14:56:36;28.10;32.30
16172;DHT22;8192;53.596;10.166;2023-06-14T14:59:04;28.10;31.10
16172;DHT22;8192;53.596;10.166;2023-06-14T15:01:33;28.00;30.90
16172;DHT22;8192;53.596;10.166;2023-06-14T15:04:00;27.40;31.60
16172;DHT22;8192;53.596;10.166;2023-06-14T15:06:27;27.10;33.00
16172;DHT22;8192;53.596;10.166;2023-06-14T15:08:54;27.00;33.00
16172;DHT22;8192;53.596;10.166;2023-06-14T15:11:21;27.00;32.60
16172;DHT22;8192;53.596;10.166;2023-06-14T15:13:48;27.00;32.40
16172;DHT22;8192;53.596;10.166;2023-06-14T15:16:15;26.70;33.20
16172;DHT22;8192;53.596;10.166;2023-06-14T15:18:44;26.60;33.00
16172;DHT22;8192;53.596;10.166;2023-06-14T15:21:13;26.20;33.70
16172;DHT22;8192;53.596;10.166;2023-06-14T15:23:40;26.50;34.40
16172;DHT22;8192;53.596;10.166;2023-06-14T15:26:08;26.30;32.90
16172;DHT22;8192;53.596;10.166;2023-06-14T15:28:36;26.10;35.10
16172;DHT22;8192;53.596;10.166;2023-06-14T15:31:02;26.30;33.80
16172;DHT22;8192;53.596;10.166;2023-06-14T15:33:29;26.40;33.30
16172;DHT22;8192;53.596;10.166;2023-06-14T15:35:59;26.30;33.90
16172;DHT22;8192;53.596;10.166;2023-06-14T15:38:26;26.30;34.00